Fremont, Iowa
Current Conditions -  °F | °C
As of 8:55 PM on Monday 20 Oct 2014 (Local Time) from KOOA Reporting Station
Clear Clear  
Wind Chill: 51°   Ceiling: Unl
Heat Index: 51°   Visibility: 10mi
Dew Point: 41°   Wind: 6mph
Humidity: 67%   Direction: 320°NW
Pressure: 30.02"   Gusts: NA
Location:  41.21°N, 92.44°W
Report Text: KOOA 210155Z AUTO 32005KT 10SM CLR 11/05 A3002 RMK AO2 T01070049
Loading
Personal Weather Stations






























Interactive Weather Map
Tropical Storm Tracking
New forecast layout! Learn more

10-Day Weather Forecast

Advertisements
Track Severe Weather on mobile